createdAt,value
2022-12-04T00:00:13.207Z,21.14
2022-12-04T00:02:41.084Z,21.21
2022-12-04T00:05:09.965Z,21.09
2022-12-04T00:07:36.858Z,21.16
2022-12-04T00:10:04.338Z,21.20
2022-12-04T00:12:30.985Z,21.19
2022-12-04T00:15:27.543Z,21.16
2022-12-04T00:17:48.039Z,21.18
2022-12-04T00:20:14.806Z,21.17
2022-12-04T00:22:41.363Z,21.16
2022-12-04T00:25:08.524Z,21.16
2022-12-04T00:27:35.115Z,21.15
2022-12-04T00:30:02.032Z,21.15
2022-12-04T00:32:28.623Z,21.05
2022-12-04T00:34:55.255Z,21.13
2022-12-04T00:37:21.815Z,21.10
2022-12-04T00:39:48.529Z,21.12
2022-12-04T00:42:15.444Z,21.14
2022-12-04T00:44:42.136Z,21.08
2022-12-04T00:47:12.146Z,21.17
2022-12-04T00:49:38.824Z,21.07
2022-12-04T00:52:05.615Z,21.17
2022-12-04T00:54:32.304Z,21.13
2022-12-04T00:56:58.832Z,21.18
2022-12-04T00:59:25.469Z,21.21
2022-12-04T01:01:52.097Z,21.12
2022-12-04T01:04:18.799Z,21.17
2022-12-04T01:06:46.827Z,21.25
2022-12-04T01:09:13.504Z,21.23
2022-12-04T01:11:40.163Z,21.21
2022-12-04T01:14:06.984Z,21.20
2022-12-04T01:16:36.677Z,21.07
2022-12-04T01:19:05.227Z,21.09
2022-12-04T01:21:31.934Z,21.12
2022-12-04T01:23:59.773Z,21.15
2022-12-04T01:26:27.270Z,21.10
2022-12-04T01:31:21.526Z,20.84
2022-12-04T01:33:49.235Z,21.09
2022-12-04T01:36:22.852Z,21.00
2022-12-04T01:38:49.947Z,20.91
2022-12-04T01:41:18.953Z,21.00
2022-12-04T01:46:12.219Z,20.97
2022-12-04T01:48:53.896Z,20.94
2022-12-04T01:51:27.188Z,21.01
2022-12-04T01:53:59.290Z,21.01
2022-12-04T01:56:33.580Z,20.91
2022-12-04T01:59:02.967Z,20.99
2022-12-04T02:01:35.336Z,20.97
2022-12-04T02:04:03.321Z,20.91
2022-12-04T02:06:29.891Z,20.90
2022-12-04T02:08:56.539Z,20.91
2022-12-04T02:12:02.383Z,20.96
2022-12-04T02:14:38.447Z,20.95
2022-12-04T02:17:10.336Z,20.96
2022-12-04T02:20:14.371Z,20.95
2022-12-04T02:23:05.959Z,20.94
2022-12-04T02:25:44.307Z,20.92
2022-12-04T02:28:43.384Z,20.92
2022-12-04T02:31:17.018Z,20.91
2022-12-04T02:34:21.954Z,20.90
2022-12-04T02:36:59.007Z,20.87
2022-12-04T02:39:36.195Z,20.86
2022-12-04T02:42:06.311Z,20.86
2022-12-04T02:47:10.676Z,20.89
2022-12-04T02:49:44.498Z,20.72
2022-12-04T02:52:15.432Z,20.72
2022-12-04T02:54:54.495Z,20.83
2022-12-04T02:57:29.972Z,20.87
2022-12-04T02:59:58.721Z,20.86
2022-12-04T03:02:40.499Z,20.85
2022-12-04T03:05:15.672Z,20.85
2022-12-04T03:07:52.308Z,20.82
2022-12-04T03:10:24.820Z,20.83
2022-12-04T03:12:58.424Z,20.78
2022-12-04T03:16:03.804Z,20.82
2022-12-04T03:18:39.902Z,20.58
2022-12-04T03:21:29.913Z,20.82
2022-12-04T03:24:04.615Z,20.66
2022-12-04T03:26:42.226Z,20.80
2022-12-04T03:29:22.540Z,20.80
2022-12-04T03:31:55.814Z,20.74
2022-12-04T03:34:32.488Z,20.75
2022-12-04T03:37:08.026Z,20.77
2022-12-04T03:40:00.650Z,20.78
2022-12-04T03:42:33.024Z,20.76
2022-12-04T03:45:10.663Z,20.76
2022-12-04T03:47:46.036Z,20.72
2022-12-04T03:50:24.139Z,20.74
2022-12-04T03:53:00.388Z,20.73
2022-12-04T03:55:41.475Z,20.71
2022-12-04T03:58:14.125Z,20.73
2022-12-04T04:00:43.134Z,20.56
2022-12-04T04:03:16.195Z,20.61
2022-12-04T04:05:47.437Z,20.72
2022-12-04T04:08:29.895Z,20.61
2022-12-04T04:11:07.944Z,20.71
2022-12-04T04:14:11.950Z,20.69
2022-12-04T04:17:01.683Z,20.66
2022-12-04T04:19:49.461Z,20.69
2022-12-04T04:22:36.721Z,20.61
2022-12-04T04:25:09.059Z,20.61
2022-12-04T04:27:35.593Z,20.67
2022-12-04T04:30:02.259Z,20.66
2022-12-04T04:32:37.941Z,20.66
2022-12-04T04:35:11.097Z,20.66
2022-12-04T04:38:01.684Z,20.52
2022-12-04T04:40:41.417Z,20.59
2022-12-04T04:43:08.013Z,20.66
2022-12-04T04:45:40.737Z,20.64
2022-12-04T04:48:15.245Z,20.55
2022-12-04T04:50:43.195Z,20.64
2022-12-04T04:53:15.466Z,20.63
2022-12-04T04:55:42.567Z,20.56
2022-12-04T04:58:11.974Z,20.60
2022-12-04T05:00:39.410Z,20.59
2022-12-04T05:03:06.512Z,20.52
2022-12-04T05:05:33.195Z,20.52
2022-12-04T05:07:59.812Z,20.62
2022-12-04T05:10:26.435Z,20.61
2022-12-04T05:12:53.011Z,20.61
2022-12-04T05:15:19.610Z,20.54
2022-12-04T05:17:46.143Z,20.59
2022-12-04T05:20:12.911Z,20.60
2022-12-04T05:22:39.667Z,20.60
2022-12-04T05:25:06.954Z,20.55
2022-12-04T05:27:34.304Z,20.58
2022-12-04T05:30:01.079Z,20.58
2022-12-04T05:32:29.156Z,20.58
2022-12-04T05:34:57.039Z,20.56
2022-12-04T05:37:24.189Z,20.57
2022-12-04T05:39:50.831Z,20.55
2022-12-04T05:42:17.355Z,20.52
2022-12-04T05:44:44.200Z,20.53
2022-12-04T05:47:11.078Z,20.53
2022-12-04T05:49:37.747Z,20.49
2022-12-04T05:52:05.689Z,20.54
2022-12-04T05:54:32.383Z,20.40
2022-12-04T05:56:59.384Z,20.54
2022-12-04T05:59:26.140Z,20.45
2022-12-04T06:01:53.019Z,20.38
2022-12-04T06:06:44.182Z,20.53
2022-12-04T06:09:11.795Z,20.44
2022-12-04T06:11:40.428Z,20.52
2022-12-04T06:14:10.509Z,20.51
2022-12-04T06:16:39.892Z,20.50
2022-12-04T06:19:18.621Z,20.45
2022-12-04T06:21:48.710Z,20.50
2022-12-04T06:24:20.700Z,20.50
2022-12-04T06:27:18.969Z,20.50
2022-12-04T06:29:34.723Z,20.40
2022-12-04T06:32:01.450Z,20.49
2022-12-04T06:34:28.173Z,20.44
2022-12-04T06:36:55.346Z,20.41
2022-12-04T06:39:22.112Z,20.43
2022-12-04T06:41:48.716Z,20.47
2022-12-04T06:44:16.473Z,20.42
2022-12-04T06:46:46.935Z,20.42
2022-12-04T06:49:14.181Z,20.46
2022-12-04T06:51:41.117Z,20.45
2022-12-04T06:54:08.965Z,20.38
2022-12-04T06:56:35.852Z,20.34
2022-12-04T06:59:04.298Z,20.38
2022-12-04T07:01:33.756Z,20.38
2022-12-04T07:04:03.355Z,20.39
2022-12-04T07:06:32.952Z,20.44
2022-12-04T07:09:00.940Z,20.37
2022-12-04T07:11:27.668Z,20.42
2022-12-04T07:13:55.895Z,20.41
2022-12-04T07:16:24.095Z,20.43
2022-12-04T07:18:53.288Z,20.41
2022-12-04T07:21:22.742Z,20.41
2022-12-04T07:23:56.221Z,20.27
2022-12-04T07:26:23.984Z,20.20
2022-12-04T07:28:50.598Z,20.40
2022-12-04T07:31:19.541Z,20.40
2022-12-04T07:33:47.454Z,20.38
2022-12-04T07:36:19.520Z,20.36
2022-12-04T07:41:13.325Z,20.40
2022-12-04T07:43:40.784Z,20.23
2022-12-04T07:46:14.475Z,20.38
2022-12-04T07:48:41.291Z,20.38
2022-12-04T07:51:14.214Z,20.28
2022-12-04T07:53:42.086Z,20.26
2022-12-04T07:56:10.139Z,20.38
2022-12-04T07:58:37.123Z,20.29
2022-12-04T08:01:15.692Z,20.30
2022-12-04T08:03:47.968Z,20.38
2022-12-04T08:06:19.664Z,20.35
2022-12-04T08:08:47.234Z,20.37
2022-12-04T08:11:17.625Z,20.36
2022-12-04T08:13:45.282Z,20.28
2022-12-04T08:16:13.328Z,20.36
2022-12-04T08:18:41.522Z,20.35
2022-12-04T08:21:11.469Z,20.35
2022-12-04T08:23:39.204Z,20.35
2022-12-04T08:26:07.172Z,20.31
2022-12-04T08:28:36.926Z,20.36
2022-12-04T08:31:05.744Z,20.34
2022-12-04T08:33:32.913Z,20.35
2022-12-04T08:35:59.689Z,20.35
2022-12-04T08:38:26.548Z,20.28
2022-12-04T08:40:53.103Z,20.34
2022-12-04T08:43:19.787Z,20.36
2022-12-04T08:46:01.653Z,20.35
2022-12-04T08:48:29.018Z,20.34
2022-12-04T08:50:58.772Z,20.34
2022-12-04T08:53:26.496Z,20.36
2022-12-04T08:55:53.183Z,20.26
2022-12-04T08:58:20.086Z,20.32
2022-12-04T09:00:46.904Z,20.22
2022-12-04T09:03:19.736Z,20.13
2022-12-04T09:05:46.816Z,20.31
2022-12-04T09:08:15.756Z,20.29
2022-12-04T09:10:42.746Z,20.34
2022-12-04T09:13:09.718Z,20.31
2022-12-04T09:15:40.064Z,20.34
2022-12-04T09:18:07.898Z,20.27
2022-12-04T09:20:35.166Z,20.33
2022-12-04T09:23:04.939Z,20.34
2022-12-04T09:25:36.331Z,20.34
2022-12-04T09:28:03.348Z,20.38
2022-12-04T09:30:29.962Z,20.42
2022-12-04T09:32:56.718Z,20.47
2022-12-04T09:35:23.255Z,20.52
2022-12-04T09:37:49.892Z,20.55
2022-12-04T09:41:09.096Z,20.58
2022-12-04T09:43:56.023Z,20.45
2022-12-04T09:46:27.365Z,20.62
2022-12-04T09:48:57.431Z,20.62
2022-12-04T09:51:26.252Z,20.64
2022-12-04T09:54:26.926Z,20.58
2022-12-04T09:57:06.545Z,20.62
2022-12-04T09:59:33.347Z,20.57
2022-12-04T10:02:23.555Z,20.57
2022-12-04T10:04:50.311Z,20.63
2022-12-04T10:07:22.845Z,20.64
2022-12-04T10:10:05.783Z,20.61
2022-12-04T10:12:35.011Z,20.65
2022-12-04T10:15:01.808Z,20.65
2022-12-04T10:18:04.490Z,20.65
2022-12-04T10:20:46.452Z,20.64
2022-12-04T10:23:28.258Z,20.64
2022-12-04T10:25:55.359Z,20.64
2022-12-04T10:28:31.910Z,20.65
2022-12-04T10:31:02.120Z,20.57
2022-12-04T10:33:37.967Z,20.58
2022-12-04T10:36:05.383Z,20.63
2022-12-04T10:39:02.648Z,20.61
2022-12-04T10:41:40.594Z,20.64
2022-12-04T10:44:19.446Z,20.56
2022-12-04T10:46:47.033Z,20.64
2022-12-04T10:49:25.737Z,20.65
2022-12-04T10:51:53.042Z,20.61
2022-12-04T10:54:26.900Z,20.64
2022-12-04T10:57:02.099Z,20.55
2022-12-04T10:59:30.223Z,20.64
2022-12-04T11:02:16.473Z,20.62
2022-12-04T11:04:43.591Z,20.62
2022-12-04T11:07:20.898Z,20.65
2022-12-04T11:10:32.777Z,20.65
2022-12-04T11:15:15.163Z,20.60
2022-12-04T11:17:41.809Z,20.65
2022-12-04T11:20:16.601Z,20.65
2022-12-04T11:22:51.203Z,20.66
2022-12-04T11:25:19.946Z,20.64
2022-12-04T11:27:50.494Z,20.64
2022-12-04T11:30:25.133Z,20.65
2022-12-04T11:32:53.622Z,20.64
2022-12-04T11:35:29.247Z,20.66
2022-12-04T11:38:07.231Z,20.67
2022-12-04T11:40:34.674Z,20.66
2022-12-04T11:43:10.063Z,20.67
2022-12-04T11:45:36.919Z,20.60
2022-12-04T11:48:13.509Z,20.56
2022-12-04T11:51:14.656Z,20.67
2022-12-04T11:53:57.750Z,20.67
2022-12-04T11:56:45.560Z,20.65
2022-12-04T11:59:36.943Z,20.66
2022-12-04T12:02:12.432Z,20.65
2022-12-04T12:04:42.424Z,20.66
2022-12-04T12:07:25.618Z,20.65
2022-12-04T12:10:03.038Z,20.65
2022-12-04T12:12:50.938Z,20.66
2022-12-04T12:15:30.087Z,20.66
2022-12-04T12:18:32.095Z,20.66
2022-12-04T12:21:23.229Z,20.66
2022-12-04T12:24:20.641Z,20.65
2022-12-04T12:27:21.383Z,20.64
2022-12-04T12:30:17.787Z,20.62
2022-12-04T12:32:47.266Z,20.64
2022-12-04T12:35:45.180Z,20.65
2022-12-04T12:38:14.672Z,20.65
2022-12-04T12:40:50.457Z,20.64
2022-12-04T12:43:27.568Z,20.65
2022-12-04T12:46:00.576Z,20.57
2022-12-04T12:48:40.242Z,20.65
2022-12-04T12:51:31.992Z,20.65
2022-12-04T12:54:15.783Z,20.63
2022-12-04T12:56:50.056Z,20.59
2022-12-04T12:59:20.923Z,20.58
2022-12-04T13:02:00.316Z,20.65
2022-12-04T13:04:39.678Z,20.63
2022-12-04T13:07:18.416Z,20.65
2022-12-04T13:09:50.340Z,20.64
2022-12-04T13:12:19.444Z,20.64
2022-12-04T13:14:49.023Z,20.64
2022-12-04T13:17:19.576Z,20.63
2022-12-04T13:19:52.925Z,20.49
2022-12-04T13:22:22.320Z,20.63
2022-12-04T13:25:00.944Z,20.63
2022-12-04T13:28:00.079Z,20.59
2022-12-04T13:30:50.579Z,20.61
2022-12-04T13:33:32.351Z,20.61
2022-12-04T13:36:40.495Z,20.61
2022-12-04T13:39:25.344Z,20.60
2022-12-04T13:42:02.765Z,20.60
2022-12-04T13:44:31.618Z,20.56
2022-12-04T13:47:04.929Z,20.60
2022-12-04T13:49:37.446Z,20.59
2022-12-04T13:52:23.961Z,20.60
2022-12-04T13:55:00.266Z,20.58
2022-12-04T13:57:28.211Z,20.50
2022-12-04T14:00:29.406Z,20.60
2022-12-04T14:02:59.199Z,20.48
2022-12-04T14:05:29.992Z,20.55
2022-12-04T14:08:19.939Z,20.58
2022-12-04T14:11:06.019Z,20.59
2022-12-04T14:13:50.386Z,20.58
2022-12-04T14:16:57.027Z,20.56
2022-12-04T14:19:39.389Z,20.56
2022-12-04T14:22:24.027Z,20.42
2022-12-04T14:24:50.665Z,20.56
2022-12-04T14:27:53.641Z,20.56
2022-12-04T14:30:31.536Z,20.55
2022-12-04T14:33:18.110Z,20.50
2022-12-04T14:35:55.364Z,20.54
2022-12-04T14:38:23.427Z,20.55
2022-12-04T14:40:53.640Z,20.56
2022-12-04T14:43:23.695Z,20.58
2022-12-04T14:46:14.766Z,20.61
2022-12-04T14:48:47.735Z,20.63
2022-12-04T14:51:29.227Z,20.65
2022-12-04T14:54:00.498Z,20.67
2022-12-04T14:57:17.198Z,20.70
2022-12-04T14:59:55.134Z,20.73
2022-12-04T15:02:28.651Z,20.75
2022-12-04T15:04:57.221Z,20.78
2022-12-04T15:07:28.268Z,20.81
2022-12-04T15:10:16.877Z,20.80
2022-12-04T15:12:54.616Z,20.81
2022-12-04T15:15:25.712Z,20.87
2022-12-04T15:18:17.261Z,20.89
2022-12-04T15:20:49.756Z,20.90
2022-12-04T15:23:26.588Z,20.92
2022-12-04T15:25:55.920Z,20.83
2022-12-04T15:28:33.129Z,20.86
2022-12-04T15:31:03.159Z,20.95
2022-12-04T15:33:34.598Z,20.90
2022-12-04T15:36:30.620Z,20.97
2022-12-04T15:38:57.292Z,20.89
2022-12-04T15:41:36.272Z,20.97
2022-12-04T15:44:40.195Z,20.97
2022-12-04T15:47:19.428Z,20.96
2022-12-04T15:49:46.299Z,20.97
2022-12-04T15:52:12.839Z,20.97
2022-12-04T15:55:03.043Z,20.96
2022-12-04T15:57:33.714Z,20.91
2022-12-04T16:00:05.124Z,20.96
2022-12-04T16:02:40.234Z,20.88
2022-12-04T16:05:27.021Z,20.93
2022-12-04T16:07:58.389Z,20.66
2022-12-04T16:10:28.543Z,20.94
2022-12-04T16:12:57.688Z,20.95
2022-12-04T16:15:27.047Z,20.92
2022-12-04T16:17:54.032Z,20.91
2022-12-04T16:20:20.777Z,20.95
2022-12-04T16:22:53.023Z,20.97
2022-12-04T16:25:19.599Z,20.99
2022-12-04T16:27:46.123Z,21.00
2022-12-04T16:30:13.954Z,20.96
2022-12-04T16:32:40.566Z,21.02
2022-12-04T16:35:07.601Z,20.97
2022-12-04T16:37:34.214Z,21.05
2022-12-04T16:40:06.371Z,21.06
2022-12-04T16:42:32.942Z,21.06
2022-12-04T16:44:59.789Z,21.07
2022-12-04T16:47:26.699Z,21.08
2022-12-04T16:49:53.408Z,21.09
2022-12-04T16:52:20.976Z,21.07
2022-12-04T16:54:47.922Z,21.10
2022-12-04T16:57:14.484Z,21.10
2022-12-04T16:59:41.019Z,21.11
2022-12-04T17:02:26.156Z,21.12
2022-12-04T17:04:57.270Z,21.09
2022-12-04T17:07:25.106Z,20.99
2022-12-04T17:09:51.687Z,21.07
2022-12-04T17:12:18.286Z,21.15
2022-12-04T17:14:45.155Z,21.08
2022-12-04T17:17:11.753Z,21.12
2022-12-04T17:19:38.239Z,21.19
2022-12-04T17:22:04.823Z,21.19
2022-12-04T17:24:31.474Z,21.21
2022-12-04T17:26:58.264Z,21.22
2022-12-04T17:29:24.818Z,21.20
2022-12-04T17:31:51.500Z,21.22
2022-12-04T17:34:18.087Z,21.24
2022-12-04T17:36:44.728Z,21.25
2022-12-04T17:39:13.571Z,21.23
2022-12-04T17:41:40.150Z,21.27
2022-12-04T17:44:06.689Z,21.26
2022-12-04T17:46:33.665Z,21.19
2022-12-04T17:49:04.053Z,21.29
2022-12-04T17:51:34.963Z,21.22
2022-12-04T17:54:01.667Z,21.32
2022-12-04T17:56:28.347Z,21.30
2022-12-04T17:58:55.188Z,21.35
2022-12-04T18:01:27.603Z,21.34
2022-12-04T18:04:03.942Z,21.34
2022-12-04T18:06:34.020Z,21.37
2022-12-04T18:09:01.277Z,21.38
2022-12-04T18:11:30.256Z,21.33
2022-12-04T18:14:00.673Z,21.40
2022-12-04T18:16:29.027Z,21.41
2022-12-04T18:18:57.305Z,21.34
2022-12-04T18:21:24.274Z,21.41
2022-12-04T18:23:51.394Z,21.42
2022-12-04T18:26:20.983Z,21.21
2022-12-04T18:28:49.745Z,21.43
2022-12-04T18:31:20.003Z,21.43
2022-12-04T18:33:47.668Z,21.44
2022-12-04T18:41:14.340Z,21.35
2022-12-04T18:43:43.267Z,21.40
2022-12-04T18:46:12.383Z,21.48
2022-12-04T18:48:40.019Z,21.38
2022-12-04T18:51:26.777Z,21.46
2022-12-04T18:53:58.260Z,21.49
2022-12-04T18:56:25.522Z,21.51
2022-12-04T18:59:00.597Z,21.53
2022-12-04T19:01:28.135Z,21.50
2022-12-04T19:03:59.817Z,21.54
2022-12-04T19:06:30.944Z,21.55
2022-12-04T19:08:59.919Z,21.57
2022-12-04T19:11:27.470Z,21.54
2022-12-04T19:13:54.536Z,21.58
2022-12-04T19:16:21.332Z,21.59
2022-12-04T19:18:48.116Z,21.58
2022-12-04T19:21:15.503Z,21.59
2022-12-04T19:23:43.422Z,21.60
2022-12-04T19:26:12.290Z,21.57
2022-12-04T19:28:39.190Z,21.58
2022-12-04T19:31:14.770Z,21.61
2022-12-04T19:33:42.053Z,21.60
2022-12-04T19:36:10.405Z,21.35
2022-12-04T19:38:37.442Z,21.59
2022-12-04T19:41:10.379Z,21.59
2022-12-04T19:43:38.752Z,21.57
2022-12-04T19:46:07.068Z,21.58
2022-12-04T19:48:34.716Z,21.55
2022-12-04T19:51:22.082Z,21.55
2022-12-04T19:53:49.628Z,21.55
2022-12-04T19:56:24.064Z,21.53
2022-12-04T19:58:56.092Z,21.48
2022-12-04T20:01:25.331Z,21.52
2022-12-04T20:03:52.913Z,21.28
2022-12-04T20:06:21.933Z,21.48
2022-12-04T20:09:00.539Z,21.49
2022-12-04T20:11:29.201Z,21.48
2022-12-04T20:13:57.252Z,21.47
2022-12-04T20:16:26.004Z,21.39
2022-12-04T20:18:53.341Z,21.45
2022-12-04T20:21:21.198Z,21.45
2022-12-04T20:23:50.056Z,21.42
2022-12-04T20:26:20.540Z,21.41
2022-12-04T20:28:47.797Z,21.41
2022-12-04T20:31:23.793Z,21.41
2022-12-04T20:33:52.850Z,21.41
2022-12-04T20:36:21.828Z,21.40
2022-12-04T20:38:49.610Z,21.38
2022-12-04T20:41:20.273Z,21.38
2022-12-04T20:43:47.659Z,21.38
2022-12-04T20:46:20.266Z,21.37
2022-12-04T20:48:49.245Z,21.37
2022-12-04T20:51:21.139Z,21.35
2022-12-04T20:53:49.820Z,21.34
2022-12-04T20:56:17.380Z,21.18
2022-12-04T20:58:44.413Z,21.33
2022-12-04T21:01:14.235Z,21.30
2022-12-04T21:03:41.127Z,21.31
2022-12-04T21:06:17.790Z,21.24
2022-12-04T21:08:55.909Z,21.25
2022-12-04T21:11:34.743Z,21.30
2022-12-04T21:14:21.933Z,21.26
2022-12-04T21:16:48.956Z,21.21
2022-12-04T21:19:17.992Z,21.22
2022-12-04T21:21:45.485Z,21.25
2022-12-04T21:24:17.790Z,21.22
2022-12-04T21:26:45.381Z,21.24
2022-12-04T21:29:12.068Z,21.22
2022-12-04T21:33:59.008Z,21.13
2022-12-04T21:36:26.699Z,21.25
2022-12-04T21:38:53.568Z,20.94
2022-12-04T21:41:38.786Z,21.14
2022-12-04T21:44:14.132Z,21.21
2022-12-04T21:46:40.898Z,21.00
2022-12-04T21:49:07.806Z,21.28
2022-12-04T21:54:23.151Z,21.31
2022-12-04T21:56:49.788Z,21.31
2022-12-04T21:59:16.746Z,21.12
2022-12-04T22:01:43.842Z,21.33
2022-12-04T22:04:10.594Z,21.29
2022-12-04T22:06:37.889Z,21.08
2022-12-04T22:09:08.042Z,21.35
2022-12-04T22:11:35.144Z,21.36
2022-12-04T22:14:01.768Z,21.27
2022-12-04T22:16:30.981Z,21.38
2022-12-04T22:18:59.280Z,21.39
2022-12-04T22:21:27.507Z,21.40
2022-12-04T22:26:25.142Z,21.41
2022-12-04T22:28:52.105Z,21.41
2022-12-04T22:31:20.435Z,21.41
2022-12-04T22:33:49.522Z,21.43
2022-12-04T22:36:19.746Z,21.41
2022-12-04T22:39:08.101Z,21.41
2022-12-04T22:41:34.994Z,21.43
2022-12-04T22:44:01.527Z,21.44
2022-12-04T22:46:28.253Z,21.44
2022-12-04T22:48:54.892Z,21.42
2022-12-04T22:51:22.408Z,21.38
2022-12-04T22:53:52.070Z,21.44
2022-12-04T22:56:30.700Z,21.45
2022-12-04T22:58:58.648Z,21.17
2022-12-04T23:01:27.587Z,21.44
2022-12-04T23:03:55.119Z,21.44
2022-12-04T23:06:24.515Z,21.44
2022-12-04T23:08:59.109Z,21.43
2022-12-04T23:11:26.855Z,21.44
2022-12-04T23:13:56.421Z,21.36
2022-12-04T23:16:24.444Z,21.44
2022-12-04T23:18:51.206Z,21.45
2022-12-04T23:21:19.270Z,21.44
2022-12-04T23:23:47.109Z,21.42
2022-12-04T23:26:19.762Z,21.45
2022-12-04T23:28:47.044Z,21.42
2022-12-04T23:31:14.410Z,21.45
2022-12-04T23:33:41.879Z,21.44
2022-12-04T23:36:10.791Z,21.45
2022-12-04T23:38:38.778Z,21.47
2022-12-04T23:43:34.670Z,21.47
2022-12-04T23:46:05.790Z,21.44
2022-12-04T23:48:35.730Z,21.41
2022-12-04T23:51:02.404Z,21.49
2022-12-04T23:53:29.639Z,21.41
2022-12-04T23:56:12.104Z,21.50
2022-12-04T23:58:39.046Z,21.51
